createdAt,value
2019-01-12T00:00:55.479Z,0.90
2019-01-12T00:03:24.815Z,0.80
2019-01-12T00:05:54.121Z,0.90
2019-01-12T00:08:23.508Z,0.90
2019-01-12T00:10:52.885Z,0.90
2019-01-12T00:13:22.247Z,0.90
2019-01-12T00:15:51.634Z,0.90
2019-01-12T00:18:21.038Z,0.90
2019-01-12T00:20:50.349Z,0.90
2019-01-12T00:23:19.667Z,0.90
2019-01-12T00:25:49.066Z,0.90
2019-01-12T00:28:18.386Z,0.90
2019-01-12T00:30:47.702Z,0.90
2019-01-12T00:33:17.281Z,0.80
2019-01-12T00:35:46.675Z,0.90
2019-01-12T00:38:15.987Z,0.80
2019-01-12T00:40:45.330Z,0.80
2019-01-12T00:43:14.686Z,0.80
2019-01-12T00:45:44.006Z,0.80
2019-01-12T00:48:13.322Z,0.70
2019-01-12T00:50:42.838Z,0.70
2019-01-12T00:53:12.150Z,0.70
2019-01-12T00:55:41.515Z,0.60
2019-01-12T00:58:10.882Z,0.60
2019-01-12T01:00:40.235Z,0.70
2019-01-12T01:03:09.696Z,0.60
2019-01-12T01:05:38.999Z,0.60
2019-01-12T01:08:08.298Z,0.60
2019-01-12T01:10:37.700Z,0.60
2019-01-12T01:13:07.010Z,0.50
2019-01-12T01:15:36.310Z,0.50
2019-01-12T01:18:05.669Z,0.50
2019-01-12T01:20:35.022Z,0.50
2019-01-12T01:23:04.503Z,0.50
2019-01-12T01:25:33.826Z,0.60
2019-01-12T01:28:03.156Z,0.60
2019-01-12T01:30:32.473Z,0.60
2019-01-12T01:33:01.802Z,0.60
2019-01-12T01:35:31.145Z,0.60
2019-01-12T01:38:00.502Z,0.60
2019-01-12T01:40:29.952Z,0.60
2019-01-12T01:42:59.330Z,0.60
2019-01-12T01:45:28.638Z,0.60
2019-01-12T01:47:58.010Z,0.50
2019-01-12T01:50:27.438Z,0.50
2019-01-12T01:52:56.738Z,0.50
2019-01-12T01:55:26.123Z,0.40
2019-01-12T01:57:55.428Z,0.50
2019-01-12T02:00:24.817Z,0.40
2019-01-12T02:02:54.250Z,0.40
2019-01-12T02:05:23.562Z,0.40
2019-01-12T02:07:52.870Z,0.40
2019-01-12T02:10:23.183Z,0.40
2019-01-12T02:12:52.535Z,0.40
2019-01-12T02:15:22.554Z,0.40
2019-01-12T02:17:51.962Z,0.30
2019-01-12T02:20:21.312Z,0.40
2019-01-12T02:22:50.712Z,0.30
2019-01-12T02:25:20.155Z,0.30
2019-01-12T02:27:49.471Z,0.30
2019-01-12T02:30:21.661Z,0.30
2019-01-12T02:32:51.109Z,0.30
2019-01-12T02:35:20.445Z,0.30
2019-01-12T02:37:49.861Z,0.20
2019-01-12T02:40:19.307Z,0.20
2019-01-12T02:42:48.607Z,0.20
2019-01-12T02:45:18.015Z,0.10
2019-01-12T02:47:47.390Z,0.20
2019-01-12T02:50:16.786Z,0.20
2019-01-12T02:52:46.171Z,0.10
2019-01-12T02:55:15.514Z,0.10
2019-01-12T02:57:44.818Z,0.10
2019-01-12T03:00:16.810Z,0.00
2019-01-12T03:02:46.129Z,0.00
2019-01-12T03:05:15.446Z,-0.10
2019-01-12T03:07:44.867Z,-0.10
2019-01-12T03:10:16.038Z,-0.20
2019-01-12T03:12:45.348Z,-0.10
2019-01-12T03:15:16.792Z,-0.10
2019-01-12T03:17:46.227Z,-0.10
2019-01-12T03:20:18.446Z,-0.10
2019-01-12T03:22:47.906Z,-0.10
2019-01-12T03:25:19.031Z,-0.10
2019-01-12T03:27:48.720Z,-0.10
2019-01-12T03:30:21.062Z,-0.20
2019-01-12T03:32:50.532Z,-0.20
2019-01-12T03:35:19.840Z,-0.20
2019-01-12T03:37:49.272Z,-0.20
2019-01-12T03:40:20.139Z,-0.10
2019-01-12T03:42:49.493Z,-0.20
2019-01-12T03:45:20.129Z,-0.20
2019-01-12T03:47:49.706Z,-0.20
2019-01-12T03:50:19.387Z,-0.30
2019-01-12T03:52:48.753Z,-0.30
2019-01-12T03:55:25.551Z,-0.30
2019-01-12T03:57:49.391Z,-0.40
2019-01-12T04:00:23.658Z,-0.40
2019-01-12T04:02:53.122Z,-0.40
2019-01-12T04:05:22.426Z,-0.30
2019-01-12T04:07:51.815Z,-0.40
2019-01-12T04:10:21.173Z,-0.40
2019-01-12T04:12:50.554Z,-0.40
2019-01-12T04:15:19.904Z,-0.40
2019-01-12T04:17:49.219Z,-0.40
2019-01-12T04:20:19.030Z,-0.40
2019-01-12T04:22:48.514Z,-0.30
2019-01-12T04:25:17.846Z,-0.40
2019-01-12T04:27:47.234Z,-0.40
2019-01-12T04:30:18.238Z,-0.40
2019-01-12T04:32:47.655Z,-0.40
2019-01-12T04:35:17.088Z,-0.50
2019-01-12T04:37:46.427Z,-0.50
2019-01-12T04:40:20.293Z,-0.50
2019-01-12T04:42:49.695Z,-0.40
2019-01-12T04:45:19.029Z,-0.40
2019-01-12T04:47:48.418Z,-0.50
2019-01-12T04:50:18.121Z,-0.40
2019-01-12T04:52:47.567Z,-0.50
2019-01-12T04:55:17.012Z,-0.40
2019-01-12T04:57:46.387Z,-0.40
2019-01-12T05:00:19.490Z,-0.40
2019-01-12T05:02:48.893Z,-0.30
2019-01-12T05:05:18.332Z,-0.30
2019-01-12T05:07:47.267Z,-0.40
2019-01-12T05:10:16.718Z,-0.40
2019-01-12T05:12:46.094Z,-0.40
2019-01-12T05:15:15.990Z,-0.40
2019-01-12T05:17:45.407Z,-0.50
2019-01-12T05:20:19.824Z,-0.40
2019-01-12T05:22:49.242Z,-0.50
2019-01-12T05:25:18.706Z,-0.50
2019-01-12T05:27:48.050Z,-0.50
2019-01-12T05:30:19.379Z,-0.50
2019-01-12T05:32:48.706Z,-0.50
2019-01-12T05:35:18.053Z,-0.50
2019-01-12T05:37:47.427Z,-0.50
2019-01-12T05:40:16.742Z,-0.50
2019-01-12T05:42:46.068Z,-0.50
2019-01-12T05:45:15.488Z,-0.50
2019-01-12T05:47:44.792Z,-0.50
2019-01-12T05:50:14.463Z,-0.50
2019-01-12T05:52:43.911Z,-0.60
2019-01-12T05:55:13.445Z,-0.60
2019-01-12T05:57:42.854Z,-0.70
2019-01-12T06:00:20.670Z,-0.60
2019-01-12T06:02:50.067Z,-0.70
2019-01-12T06:05:19.378Z,-0.70
2019-01-12T06:07:48.698Z,-0.60
2019-01-12T06:10:18.163Z,-0.50
2019-01-12T06:12:47.466Z,-0.50
2019-01-12T06:15:16.898Z,-0.50
2019-01-12T06:17:46.326Z,-0.50
2019-01-12T06:20:16.283Z,-0.50
2019-01-12T06:22:45.691Z,-0.60
2019-01-12T06:25:15.115Z,-0.60
2019-01-12T06:27:44.502Z,-0.60
2019-01-12T06:30:16.452Z,-0.60
2019-01-12T06:32:45.854Z,-0.70
2019-01-12T06:35:15.178Z,-0.60
2019-01-12T06:37:44.482Z,-0.60
2019-01-12T06:40:15.994Z,-0.60
2019-01-12T06:42:45.414Z,-0.60
2019-01-12T06:45:15.151Z,-0.60
2019-01-12T06:47:44.554Z,-0.60
2019-01-12T06:50:15.046Z,-0.60
2019-01-12T06:52:44.474Z,-0.60
2019-01-12T06:55:13.851Z,-0.50
2019-01-12T06:57:43.179Z,-0.60
2019-01-12T07:00:15.139Z,-0.70
2019-01-12T07:02:44.588Z,-0.70
2019-01-12T07:05:13.962Z,-0.80
2019-01-12T07:07:43.278Z,-0.90
2019-01-12T07:10:12.915Z,-0.80
2019-01-12T07:12:42.331Z,-0.80
2019-01-12T07:15:12.866Z,-0.80
2019-01-12T07:17:42.198Z,-0.70
2019-01-12T07:20:13.698Z,-0.70
2019-01-12T07:22:43.015Z,-0.70
2019-01-12T07:25:12.426Z,-0.70
2019-01-12T07:27:41.738Z,-0.70
2019-01-12T07:30:17.570Z,-0.70
2019-01-12T07:32:46.923Z,-0.80
2019-01-12T07:35:16.350Z,-0.90
2019-01-12T07:37:45.701Z,-0.90
2019-01-12T07:40:15.318Z,-0.90
2019-01-12T07:42:44.666Z,-0.90
2019-01-12T07:45:14.163Z,-1.00
2019-01-12T07:47:43.776Z,-1.00
2019-01-12T07:50:14.375Z,-1.10
2019-01-12T07:52:43.726Z,-1.20
2019-01-12T07:55:13.146Z,-1.30
2019-01-12T07:57:42.464Z,-1.30
2019-01-12T08:00:20.215Z,-1.40
2019-01-12T08:02:49.727Z,-1.40
2019-01-12T08:05:19.547Z,-1.50
2019-01-12T08:07:48.907Z,-1.50
2019-01-12T08:10:20.754Z,-1.40
2019-01-12T08:12:50.094Z,-1.40
2019-01-12T08:15:19.447Z,-1.40
2019-01-12T08:17:48.861Z,-1.40
2019-01-12T08:20:18.201Z,-1.40
2019-01-12T08:22:47.699Z,-1.40
2019-01-12T08:25:17.034Z,-1.50
2019-01-12T08:27:46.354Z,-1.40
2019-01-12T08:30:17.603Z,-1.40
2019-01-12T08:32:46.912Z,-1.40
2019-01-12T08:35:16.523Z,-1.40
2019-01-12T08:37:45.866Z,-1.50
2019-01-12T08:40:15.306Z,-1.40
2019-01-12T08:42:44.619Z,-1.40
2019-01-12T08:45:14.136Z,-1.40
2019-01-12T08:47:43.537Z,-1.40
2019-01-12T08:50:18.434Z,-1.40
2019-01-12T08:52:47.998Z,-1.40
2019-01-12T08:55:17.439Z,-1.40
2019-01-12T08:57:46.764Z,-1.40
2019-01-12T09:00:18.418Z,-1.40
2019-01-12T09:02:52.698Z,-1.30
2019-01-12T09:05:22.078Z,-1.30
2019-01-12T09:07:51.399Z,-1.20
2019-01-12T09:10:22.191Z,-1.10
2019-01-12T09:12:51.726Z,-1.10
2019-01-12T09:15:21.459Z,-1.00
2019-01-12T09:17:50.920Z,-1.00
2019-01-12T09:20:20.349Z,-0.90
2019-01-12T09:22:49.698Z,-0.80
2019-01-12T09:25:19.302Z,-0.70
2019-01-12T09:27:48.806Z,-0.70
2019-01-12T09:30:20.579Z,-0.70
2019-01-12T09:32:50.404Z,-0.70
2019-01-12T09:35:19.720Z,-0.70
2019-01-12T09:37:49.038Z,-0.70
2019-01-12T09:40:20.485Z,-0.60
2019-01-12T09:42:49.902Z,-0.60
2019-01-12T09:45:19.664Z,-0.60
2019-01-12T09:47:49.066Z,-0.50
2019-01-12T09:50:19.604Z,-0.50
2019-01-12T09:52:49.106Z,-0.40
2019-01-12T09:55:18.514Z,-0.40
2019-01-12T09:57:47.904Z,-0.40
2019-01-12T10:00:19.618Z,-0.30
2019-01-12T10:02:49.138Z,-0.30
2019-01-12T10:05:18.471Z,-0.20
2019-01-12T10:07:47.898Z,-0.20
2019-01-12T10:10:17.959Z,-0.20
2019-01-12T10:12:47.275Z,-0.10
2019-01-12T10:15:16.723Z,-0.10
2019-01-12T10:17:46.641Z,-0.10
2019-01-12T10:20:18.275Z,-0.10
2019-01-12T10:22:47.799Z,0.00
2019-01-12T10:25:17.653Z,0.00
2019-01-12T10:27:46.970Z,0.00
2019-01-12T10:30:24.355Z,0.00
2019-01-12T10:32:54.033Z,0.00
2019-01-12T10:35:23.490Z,0.10
2019-01-12T10:37:52.881Z,0.00
2019-01-12T10:40:22.303Z,0.10
2019-01-12T10:42:51.739Z,0.10
2019-01-12T10:45:22.747Z,0.00
2019-01-12T10:47:52.614Z,0.00
2019-01-12T10:50:27.924Z,0.00
2019-01-12T10:52:57.252Z,0.00
2019-01-12T10:55:26.950Z,0.00
2019-01-12T10:57:56.392Z,0.10
2019-01-12T11:00:28.641Z,0.10
2019-01-12T11:02:58.050Z,0.10
2019-01-12T11:05:27.646Z,0.10
2019-01-12T11:07:56.967Z,0.20
2019-01-12T11:10:26.283Z,0.20
2019-01-12T11:12:55.883Z,0.20
2019-01-12T11:15:25.195Z,0.30
2019-01-12T11:17:54.544Z,0.30
2019-01-12T11:20:23.991Z,0.30
2019-01-12T11:22:53.500Z,0.40
2019-01-12T11:25:22.810Z,0.40
2019-01-12T11:27:52.218Z,0.40
2019-01-12T11:30:21.580Z,0.50
2019-01-12T11:32:50.963Z,0.40
2019-01-12T11:35:20.310Z,0.40
2019-01-12T11:37:49.633Z,0.50
2019-01-12T11:40:20.246Z,0.50
2019-01-12T11:42:51.130Z,0.50
2019-01-12T11:45:21.278Z,0.50
2019-01-12T11:47:50.683Z,0.50
2019-01-12T11:50:20.350Z,0.60
2019-01-12T11:52:49.778Z,0.60
2019-01-12T11:55:20.008Z,0.50
2019-01-12T11:57:49.358Z,0.50
2019-01-12T12:00:21.266Z,0.40
2019-01-12T12:02:50.577Z,0.30
2019-01-12T12:05:19.991Z,0.40
2019-01-12T12:07:49.303Z,0.30
2019-01-12T12:10:18.750Z,0.30
2019-01-12T12:12:48.091Z,0.20
2019-01-12T12:15:17.660Z,0.20
2019-01-12T12:17:46.968Z,0.30
2019-01-12T12:20:18.678Z,0.30
2019-01-12T12:22:48.023Z,0.20
2019-01-12T12:25:17.415Z,0.20
2019-01-12T12:27:46.811Z,0.10
2019-01-12T12:30:19.046Z,0.10
2019-01-12T12:32:48.370Z,0.10
2019-01-12T12:35:17.801Z,0.10
2019-01-12T12:37:47.200Z,0.10
2019-01-12T12:40:18.058Z,0.10
2019-01-12T12:42:47.418Z,0.10
2019-01-12T12:45:18.923Z,0.10
2019-01-12T12:47:48.312Z,0.10
2019-01-12T12:50:18.162Z,0.00
2019-01-12T12:52:47.467Z,0.00
2019-01-12T12:55:17.078Z,0.10
2019-01-12T12:57:46.467Z,0.10
2019-01-12T13:00:18.290Z,0.10
2019-01-12T13:02:47.611Z,0.10
2019-01-12T13:05:16.946Z,0.10
2019-01-12T13:07:46.351Z,0.00
2019-01-12T13:10:18.163Z,0.00
2019-01-12T13:12:47.719Z,0.00
2019-01-12T13:15:17.292Z,-0.10
2019-01-12T13:17:46.606Z,-0.10
2019-01-12T13:20:17.451Z,-0.10
2019-01-12T13:22:46.922Z,-0.10
2019-01-12T13:25:16.810Z,-0.20
2019-01-12T13:27:46.262Z,-0.20
2019-01-12T13:30:26.266Z,-0.30
2019-01-12T13:32:55.708Z,-0.30
2019-01-12T13:35:25.226Z,-0.30
2019-01-12T13:37:54.639Z,-0.30
2019-01-12T13:40:26.210Z,-0.40
2019-01-12T13:42:55.546Z,-0.40
2019-01-12T13:45:24.971Z,-0.40
2019-01-12T13:47:54.463Z,-0.50
2019-01-12T13:50:25.674Z,-0.50
2019-01-12T13:52:55.060Z,-0.50
2019-01-12T13:55:24.375Z,-0.50
2019-01-12T13:57:53.743Z,-0.50
2019-01-12T14:00:34.730Z,-0.60
2019-01-12T14:03:05.150Z,-0.60
2019-01-12T14:05:34.466Z,-0.70
2019-01-12T14:08:03.923Z,-0.70
2019-01-12T14:10:33.226Z,-0.80
2019-01-12T14:13:02.538Z,-0.80
2019-01-12T14:15:32.487Z,-0.80
2019-01-12T14:18:01.894Z,-0.80
2019-01-12T14:20:33.521Z,-0.80
2019-01-12T14:23:02.975Z,-0.80
2019-01-12T14:25:32.366Z,-0.80
2019-01-12T14:28:01.690Z,-0.80
2019-01-12T14:30:31.177Z,-0.90
2019-01-12T14:33:00.575Z,-0.90
2019-01-12T14:35:29.894Z,-0.90
2019-01-12T14:37:59.237Z,-1.00
2019-01-12T14:40:28.612Z,-1.00
2019-01-12T14:42:57.962Z,-1.00
2019-01-12T14:45:29.479Z,-1.10
2019-01-12T14:47:58.802Z,-1.10
2019-01-12T14:50:28.198Z,-1.10
2019-01-12T14:52:57.540Z,-1.10
2019-01-12T14:55:26.862Z,-1.10
2019-01-12T14:58:02.295Z,-1.10
2019-01-12T15:00:28.767Z,-1.10
2019-01-12T15:02:58.206Z,-1.10
2019-01-12T15:05:29.924Z,-1.10
2019-01-12T15:07:59.358Z,-1.10
2019-01-12T15:10:28.827Z,-1.00
2019-01-12T15:12:58.183Z,-1.00
2019-01-12T15:15:27.587Z,-1.10
2019-01-12T15:17:56.983Z,-1.10
2019-01-12T15:20:30.638Z,-1.10
2019-01-12T15:23:00.016Z,-1.00
2019-01-12T15:25:29.326Z,-1.00
2019-01-12T15:27:58.647Z,-1.10
2019-01-12T15:30:29.656Z,-1.10
2019-01-12T15:32:59.887Z,-1.10
2019-01-12T15:35:31.182Z,-1.20
2019-01-12T15:38:00.706Z,-1.20
2019-01-12T15:40:30.070Z,-1.20
2019-01-12T15:42:59.407Z,-1.20
2019-01-12T15:45:28.818Z,-1.20
2019-01-12T15:47:58.140Z,-1.20
2019-01-12T15:50:28.094Z,-1.20
2019-01-12T15:52:57.530Z,-1.20
2019-01-12T15:55:26.934Z,-1.30
2019-01-12T15:57:56.503Z,-1.30
2019-01-12T16:00:27.640Z,-1.30
2019-01-12T16:02:57.238Z,-1.30
2019-01-12T16:05:26.924Z,-1.30
2019-01-12T16:07:56.262Z,-1.30
2019-01-12T16:10:25.569Z,-1.20
2019-01-12T16:12:54.903Z,-1.20
2019-01-12T16:15:26.146Z,-1.20
2019-01-12T16:17:55.712Z,-1.20
2019-01-12T16:20:33.647Z,-1.20
2019-01-12T16:23:02.982Z,-1.20
2019-01-12T16:25:32.290Z,-1.20
2019-01-12T16:28:02.014Z,-1.20
2019-01-12T16:30:31.411Z,-1.20
2019-01-12T16:33:00.796Z,-1.10
2019-01-12T16:35:30.135Z,-1.10
2019-01-12T16:37:59.516Z,-1.10
2019-01-12T16:40:28.866Z,-1.10
2019-01-12T16:42:58.334Z,-1.10
2019-01-12T16:45:27.714Z,-1.10
2019-01-12T16:47:57.034Z,-1.10
2019-01-12T16:50:26.407Z,-1.00
2019-01-12T16:52:55.714Z,-1.00
2019-01-12T16:55:25.034Z,-1.00
2019-01-12T16:57:54.410Z,-1.00
2019-01-12T17:00:26.066Z,-1.00
2019-01-12T17:02:55.386Z,-0.90
2019-01-12T17:05:25.086Z,-0.90
2019-01-12T17:07:54.413Z,-0.90
2019-01-12T17:10:23.743Z,-0.90
2019-01-12T17:12:53.224Z,-0.90
2019-01-12T17:15:23.655Z,-0.90
2019-01-12T17:17:52.969Z,-0.90
2019-01-12T17:20:32.389Z,-0.90
2019-01-12T17:23:05.627Z,-0.90
2019-01-12T17:25:35.543Z,-0.80
2019-01-12T17:28:05.247Z,-0.80
2019-01-12T17:30:34.658Z,-0.80
2019-01-12T17:33:04.134Z,-0.80
2019-01-12T17:35:33.534Z,-0.80
2019-01-12T17:38:03.149Z,-0.80
2019-01-12T17:40:32.607Z,-0.80
2019-01-12T17:43:01.930Z,-0.80
2019-01-12T17:45:31.250Z,-0.80
2019-01-12T17:48:00.603Z,-0.70
2019-01-12T17:50:29.914Z,-0.80
2019-01-12T17:52:59.457Z,-0.80
2019-01-12T17:55:29.235Z,-0.80
2019-01-12T17:57:58.566Z,-0.90
2019-01-12T18:00:54.372Z,-0.90
2019-01-12T18:03:23.756Z,-0.90
2019-01-12T18:05:53.074Z,-0.90
2019-01-12T18:08:22.388Z,-0.90
2019-01-12T18:10:51.706Z,-0.90
2019-01-12T18:13:21.090Z,-0.90
2019-01-12T18:15:50.428Z,-0.90
2019-01-12T18:18:19.726Z,-0.90
2019-01-12T18:20:49.034Z,-0.90
2019-01-12T18:23:18.444Z,-0.90
2019-01-12T18:25:47.766Z,-0.80
2019-01-12T18:28:17.070Z,-0.90
2019-01-12T18:30:46.547Z,-0.90
2019-01-12T18:33:15.851Z,-1.00
2019-01-12T18:35:45.355Z,-1.00
2019-01-12T18:38:14.754Z,-1.00
2019-01-12T18:40:44.074Z,-1.00
2019-01-12T18:43:13.411Z,-1.00
2019-01-12T18:45:42.879Z,-1.00
2019-01-12T18:48:12.262Z,-1.00
2019-01-12T18:50:41.596Z,-1.00
2019-01-12T18:53:11.019Z,-1.00
2019-01-12T18:55:40.339Z,-1.00
2019-01-12T18:58:09.726Z,-1.00
2019-01-12T19:00:39.076Z,-1.00
2019-01-12T19:03:08.634Z,-1.00
2019-01-12T19:05:38.027Z,-1.00
2019-01-12T19:08:07.484Z,-1.00
2019-01-12T19:10:36.840Z,-1.00
2019-01-12T19:13:06.152Z,-1.00
2019-01-12T19:15:35.570Z,-1.00
2019-01-12T19:18:05.154Z,-1.00
2019-01-12T19:20:34.499Z,-1.00
2019-01-12T19:23:03.819Z,-1.00
2019-01-12T19:25:33.208Z,-1.00
2019-01-12T19:28:02.585Z,-1.00
2019-01-12T19:30:31.936Z,-1.00
2019-01-12T19:33:01.303Z,-1.00
2019-01-12T19:35:30.612Z,-1.00
2019-01-12T19:38:00.046Z,-1.00
2019-01-12T19:40:29.410Z,-1.00
2019-01-12T19:42:58.739Z,-1.00
2019-01-12T19:45:28.403Z,-0.90
2019-01-12T19:47:57.774Z,-1.00
2019-01-12T19:50:27.399Z,-1.00
2019-01-12T19:52:57.351Z,-1.00
2019-01-12T19:55:26.765Z,-1.00
2019-01-12T19:57:56.115Z,-1.10
2019-01-12T20:00:28.280Z,-1.10
2019-01-12T20:02:57.686Z,-1.10
2019-01-12T20:05:27.030Z,-1.10
2019-01-12T20:07:56.618Z,-1.20
2019-01-12T20:10:26.443Z,-1.20
2019-01-12T20:12:55.763Z,-1.20
2019-01-12T20:15:25.978Z,-1.30
2019-01-12T20:17:55.319Z,-1.30
2019-01-12T20:20:24.646Z,-1.40
2019-01-12T20:22:54.106Z,-1.40
2019-01-12T20:25:28.696Z,-1.40
2019-01-12T20:27:59.380Z,-1.40
2019-01-12T20:30:33.503Z,-1.40
2019-01-12T20:33:34.366Z,-1.40
2019-01-12T20:36:38.920Z,-1.40
2019-01-12T20:39:31.595Z,-1.50
2019-01-12T20:42:22.347Z,-1.40
2019-01-12T20:45:17.758Z,-1.40
2019-01-12T20:48:09.843Z,-1.50
2019-01-12T20:51:04.500Z,-1.60
2019-01-12T20:54:05.378Z,-1.60
2019-01-12T20:57:27.627Z,-1.70
2019-01-12T21:00:28.718Z,-1.70
2019-01-12T21:03:10.012Z,-1.80
2019-01-12T21:06:14.050Z,-1.90
2019-01-12T21:09:20.007Z,-1.90
2019-01-12T21:12:26.048Z,-2.00
2019-01-12T21:15:03.675Z,-2.00
2019-01-12T21:17:32.982Z,-2.10
2019-01-12T21:20:02.492Z,-2.20
2019-01-12T21:22:32.176Z,-2.20
2019-01-12T21:25:01.494Z,-2.20
2019-01-12T21:27:30.907Z,-2.30
2019-01-12T21:30:00.242Z,-2.40
2019-01-12T21:32:29.552Z,-2.40
2019-01-12T21:34:58.890Z,-2.50
2019-01-12T21:37:28.238Z,-2.60
2019-01-12T21:39:57.563Z,-2.60
2019-01-12T21:42:26.879Z,-2.60
2019-01-12T21:44:56.281Z,-2.60
2019-01-12T21:47:25.603Z,-2.70
2019-01-12T21:49:54.926Z,-2.70
2019-01-12T21:52:24.324Z,-2.80
2019-01-12T21:54:53.627Z,-2.80
2019-01-12T21:57:22.935Z,-2.80
2019-01-12T21:59:52.486Z,-2.90
2019-01-12T22:02:21.891Z,-2.90
2019-01-12T22:04:51.210Z,-3.00
2019-01-12T22:07:20.550Z,-3.00
2019-01-12T22:09:49.885Z,-3.10
2019-01-12T22:12:19.263Z,-3.10
2019-01-12T22:14:48.578Z,-3.20
2019-01-12T22:17:17.958Z,-3.30
2019-01-12T22:23:16.069Z,-3.40
2019-01-12T22:25:45.378Z,-3.40
2019-01-12T22:28:14.708Z,-3.50
2019-01-12T22:30:44.126Z,-3.50
2019-01-12T22:33:13.438Z,-3.50
2019-01-12T22:35:42.754Z,-3.60
2019-01-12T22:38:12.333Z,-3.50
2019-01-12T22:40:41.730Z,-3.60
2019-01-12T22:43:11.045Z,-3.70
2019-01-12T22:45:40.516Z,-3.80
2019-01-12T22:48:09.886Z,-3.80
2019-01-12T22:50:39.203Z,-3.90
2019-01-12T22:53:08.615Z,-3.90
2019-01-12T22:55:38.006Z,-3.90
2019-01-12T22:58:07.338Z,-3.90
2019-01-12T23:01:10.654Z,-3.90
2019-01-12T23:03:45.199Z,-3.90
2019-01-12T23:06:14.667Z,-4.00
2019-01-12T23:08:43.982Z,-4.00
2019-01-12T23:11:13.302Z,-4.00
2019-01-12T23:13:42.769Z,-4.00
2019-01-12T23:16:12.090Z,-4.10
2019-01-12T23:18:41.398Z,-4.10
2019-01-12T23:21:10.748Z,-4.00
2019-01-12T23:23:40.134Z,-4.00
2019-01-12T23:26:09.625Z,-4.10
2019-01-12T23:28:38.971Z,-4.10
2019-01-12T23:31:08.278Z,-4.10
2019-01-12T23:33:37.610Z,-4.00
2019-01-12T23:36:06.952Z,-4.00
2019-01-12T23:38:36.273Z,-4.00
2019-01-12T23:41:05.754Z,-4.00
2019-01-12T23:43:35.126Z,-3.90
2019-01-12T23:46:04.643Z,-3.90
2019-01-12T23:48:34.022Z,-3.90
2019-01-12T23:51:03.379Z,-3.80
2019-01-12T23:53:32.686Z,-3.80
2019-01-12T23:56:01.990Z,-3.70
2019-01-12T23:58:31.330Z,-3.70
